Terminal Aerodrome Forecast
Issued by NWS

Home | Current Version | Previous Version | Text Only | Print | Product List | Glossary On
Versions: 1 2 3 4 5 6 7 8 9 10 11 12 13 14 15 16 17 18 19 20 21 22 23 24
000
FTUS45 KGJT 271720
TAFDRO
TAF
KDRO 271720Z 2718/2818 08004KT P6SM SKC
     FM271900 12006KT P6SM SCT250
     FM280100 05006KT P6SM SKC
     FM281200 VRB03KT P6SM SKC=

USA.gov is the U.S. government's official web portal to all federal, state and local government web resources and services.